createdAt,value
2018-07-05T00:02:10.260Z,3.53
2018-07-05T00:04:57.075Z,3.47
2018-07-05T00:07:43.864Z,3.43
2018-07-05T00:10:30.564Z,3.87
2018-07-05T00:13:17.024Z,3.37
2018-07-05T00:16:03.791Z,3.30
2018-07-05T00:18:44.315Z,3.20
2018-07-05T00:21:30.955Z,3.53
2018-07-05T00:24:17.567Z,3.50
2018-07-05T00:27:03.972Z,3.67
2018-07-05T00:29:50.490Z,3.50
2018-07-05T00:32:37.288Z,3.70
2018-07-05T00:35:23.889Z,3.77
2018-07-05T00:38:10.435Z,3.60
2018-07-05T00:40:56.989Z,4.10
2018-07-05T00:43:43.416Z,4.20
2018-07-05T00:46:30.028Z,4.30
2018-07-05T00:49:10.719Z,4.00
2018-07-05T00:51:51.143Z,4.43
2018-07-05T00:54:31.600Z,4.50
2018-07-05T00:57:18.080Z,3.90
2018-07-05T01:00:04.652Z,3.93
2018-07-05T01:02:51.031Z,4.13
2018-07-05T01:05:37.623Z,4.47
2018-07-05T01:08:24.331Z,4.70
2018-07-05T01:11:10.917Z,4.30
2018-07-05T01:13:51.677Z,4.40
2018-07-05T01:16:38.064Z,4.73
2018-07-05T01:19:24.627Z,4.20
2018-07-05T01:22:11.296Z,4.53
2018-07-05T01:24:51.723Z,4.20
2018-07-05T01:27:38.509Z,4.53
2018-07-05T01:30:24.999Z,4.67
2018-07-05T01:33:11.457Z,4.60
2018-07-05T01:35:58.033Z,4.27
2018-07-05T01:38:44.585Z,4.20
2018-07-05T01:41:25.138Z,4.40
2018-07-05T01:44:11.668Z,4.83
2018-07-05T01:46:58.299Z,4.80
2018-07-05T01:49:44.627Z,4.43
2018-07-05T01:52:31.416Z,4.63
2018-07-05T01:55:18.011Z,4.87
2018-07-05T01:57:58.867Z,4.80
2018-07-05T02:00:45.384Z,4.43
2018-07-05T02:03:31.799Z,5.00
2018-07-05T02:06:18.272Z,5.57
2018-07-05T02:09:05.124Z,5.00
2018-07-05T02:11:51.603Z,4.57
2018-07-05T02:14:38.364Z,5.30
2018-07-05T02:17:24.756Z,5.13
2018-07-05T02:20:11.283Z,5.50
2018-07-05T02:22:57.636Z,5.90
2018-07-05T02:25:38.123Z,5.70
2018-07-05T02:28:24.511Z,5.47
2018-07-05T02:31:11.100Z,5.37
2018-07-05T02:33:59.265Z,5.37
2018-07-05T02:36:45.672Z,5.40
2018-07-05T02:39:51.896Z,5.27
2018-07-05T02:42:38.625Z,5.73
2018-07-05T02:45:25.144Z,5.70
2018-07-05T02:48:11.730Z,5.43
2018-07-05T02:50:58.176Z,5.60
2018-07-05T02:53:44.926Z,5.40
2018-07-05T02:56:25.319Z,5.90
2018-07-05T02:59:11.820Z,6.10
2018-07-05T03:01:58.469Z,6.47
2018-07-05T03:04:45.064Z,6.60
2018-07-05T03:07:25.496Z,7.57
2018-07-05T03:10:11.896Z,6.67
2018-07-05T03:12:58.342Z,7.77
2018-07-05T03:15:44.853Z,7.50
2018-07-05T03:18:31.243Z,7.50
2018-07-05T03:21:17.772Z,7.70
2018-07-05T03:24:04.455Z,7.37
2018-07-05T03:26:44.989Z,7.63
2018-07-05T03:29:31.411Z,8.23
2018-07-05T03:32:18.092Z,7.77
2018-07-05T03:35:04.630Z,7.53
2018-07-05T03:37:51.536Z,8.20
2018-07-05T03:40:38.087Z,6.60
2018-07-05T03:43:24.687Z,7.00
2018-07-05T03:46:11.244Z,6.73
2018-07-05T03:48:57.731Z,6.80
2018-07-05T03:51:44.368Z,6.47
2018-07-05T03:54:30.984Z,6.37
2018-07-05T03:57:17.612Z,5.93
2018-07-05T03:59:58.020Z,5.90
2018-07-05T04:02:44.598Z,6.50
2018-07-05T04:05:31.123Z,6.30
2018-07-05T04:08:17.892Z,6.27
2018-07-05T04:11:04.764Z,5.67
2018-07-05T04:13:51.290Z,6.40
2018-07-05T04:16:37.820Z,6.53
2018-07-05T04:19:24.320Z,6.93
2018-07-05T04:22:10.696Z,6.50
2018-07-05T04:24:57.339Z,6.27
2018-07-05T04:27:43.956Z,5.97
2018-07-05T04:30:30.417Z,6.33
2018-07-05T04:33:11.084Z,6.00
2018-07-05T04:35:51.406Z,6.70
2018-07-05T04:38:37.665Z,6.10
2018-07-05T04:41:24.332Z,6.03
2018-07-05T04:44:11.082Z,6.50
2018-07-05T04:46:57.594Z,6.50
2018-07-05T04:49:43.999Z,6.13
2018-07-05T04:52:30.499Z,6.37
2018-07-05T04:55:17.184Z,6.13
2018-07-05T04:58:04.005Z,6.23
2018-07-05T05:00:50.611Z,5.80
2018-07-05T05:03:37.108Z,6.10
2018-07-05T05:06:23.724Z,5.50
2018-07-05T05:09:10.287Z,5.90
2018-07-05T05:11:56.836Z,6.03
2018-07-05T05:14:43.344Z,5.87
2018-07-05T05:17:29.930Z,6.47
2018-07-05T05:20:16.563Z,6.97
2018-07-05T05:23:03.240Z,6.53
2018-07-05T05:25:49.746Z,6.50
2018-07-05T05:28:36.371Z,6.93
2018-07-05T05:31:23.019Z,6.70
2018-07-05T05:34:09.584Z,6.43
2018-07-05T05:36:56.279Z,6.40
2018-07-05T05:39:42.809Z,6.47
2018-07-05T05:42:29.480Z,6.60
2018-07-05T05:45:16.041Z,6.20
2018-07-05T05:48:02.516Z,6.40
2018-07-05T05:50:42.975Z,6.03
2018-07-05T05:53:29.467Z,6.40
2018-07-05T05:56:15.975Z,6.63
2018-07-05T05:58:56.366Z,7.07
2018-07-05T06:01:42.652Z,7.27
2018-07-05T06:04:29.084Z,6.97
2018-07-05T06:07:15.499Z,6.13
2018-07-05T06:10:02.251Z,6.10
2018-07-05T06:12:42.619Z,6.37
2018-07-05T06:15:28.864Z,6.30
2018-07-05T06:18:15.274Z,6.73
2018-07-05T06:21:01.716Z,6.10
2018-07-05T06:23:42.199Z,7.17
2018-07-05T06:26:22.531Z,7.10
2018-07-05T06:29:08.800Z,7.77
2018-07-05T06:31:49.171Z,7.40
2018-07-05T06:34:35.384Z,6.47
2018-07-05T06:37:22.057Z,7.37
2018-07-05T06:40:08.771Z,7.57
2018-07-05T06:42:55.260Z,7.87
2018-07-05T06:45:35.567Z,7.57
2018-07-05T06:48:21.955Z,7.90
2018-07-05T06:51:08.608Z,8.10
2018-07-05T06:53:48.967Z,8.30
2018-07-05T06:56:35.458Z,7.60
2018-07-05T06:59:21.971Z,7.67
2018-07-05T07:02:08.538Z,6.40
2018-07-05T07:04:55.294Z,6.07
2018-07-05T07:07:35.730Z,5.90
2018-07-05T07:10:16.016Z,5.83
2018-07-05T07:13:02.404Z,5.83
2018-07-05T07:15:48.949Z,5.87
2018-07-05T07:18:35.545Z,5.17
2018-07-05T07:21:22.266Z,5.27
2018-07-05T07:24:08.828Z,4.80
2018-07-05T07:26:49.226Z,4.70
2018-07-05T07:29:35.745Z,4.57
2018-07-05T07:32:22.196Z,4.93
2018-07-05T07:35:08.606Z,4.60
2018-07-05T07:37:49.056Z,5.00
2018-07-05T07:40:29.347Z,4.70
2018-07-05T07:43:03.940Z,4.97
2018-07-05T07:45:31.966Z,4.43
2018-07-05T07:47:59.604Z,4.00
2018-07-05T07:50:27.436Z,4.60
2018-07-05T07:52:55.247Z,4.73
2018-07-05T07:55:23.072Z,4.40
2018-07-05T07:57:50.884Z,4.43
2018-07-05T08:00:18.712Z,4.20
2018-07-05T08:02:46.776Z,4.80
2018-07-05T08:05:14.771Z,4.20
2018-07-05T08:07:42.496Z,4.10
2018-07-05T08:10:10.319Z,4.20
2018-07-05T08:12:38.131Z,4.20
2018-07-05T08:15:05.987Z,4.40
2018-07-05T08:17:33.831Z,4.53
2018-07-05T08:20:01.686Z,4.17
2018-07-05T08:22:29.490Z,4.40
2018-07-05T08:24:57.320Z,4.30
2018-07-05T08:27:25.128Z,3.97
2018-07-05T08:29:52.956Z,4.37
2018-07-05T08:32:20.764Z,3.60
2018-07-05T08:34:48.584Z,4.00
2018-07-05T08:37:16.413Z,3.90
2018-07-05T08:39:44.247Z,3.67
2018-07-05T08:42:12.078Z,3.70
2018-07-05T08:44:39.880Z,3.73
2018-07-05T08:47:07.709Z,3.53
2018-07-05T08:49:35.796Z,3.10
2018-07-05T08:52:03.624Z,3.57
2018-07-05T08:54:31.429Z,3.70
2018-07-05T08:56:59.259Z,3.30
2018-07-05T08:59:27.076Z,3.57
2018-07-05T09:01:54.900Z,3.37
2018-07-05T09:04:22.699Z,3.00
2018-07-05T09:06:50.528Z,3.23
2018-07-05T09:09:18.591Z,3.13
2018-07-05T09:11:46.639Z,3.00
2018-07-05T09:14:14.387Z,2.93
2018-07-05T09:16:42.216Z,2.90
2018-07-05T09:19:10.640Z,2.90
2018-07-05T09:21:38.468Z,2.80
2018-07-05T09:24:06.275Z,3.40
2018-07-05T09:26:34.095Z,3.07
2018-07-05T09:29:01.903Z,2.97
2018-07-05T09:31:29.736Z,3.10
2018-07-05T09:33:57.544Z,2.87
2018-07-05T09:36:25.576Z,3.60
2018-07-05T09:38:53.383Z,3.00
2018-07-05T09:41:21.211Z,3.00
2018-07-05T09:43:49.026Z,3.03
2018-07-05T09:46:16.854Z,3.30
2018-07-05T09:48:44.663Z,3.10
2018-07-05T09:51:12.493Z,2.90
2018-07-05T09:53:40.298Z,2.73
2018-07-05T09:56:08.132Z,3.17
2018-07-05T09:58:35.944Z,2.90
2018-07-05T10:01:03.783Z,3.10
2018-07-05T10:03:31.627Z,2.87
2018-07-05T10:05:59.447Z,2.87
2018-07-05T10:08:27.259Z,2.60
2018-07-05T10:10:55.088Z,4.23
2018-07-05T10:13:23.316Z,2.80
2018-07-05T10:15:50.913Z,3.00
2018-07-05T10:18:18.732Z,2.97
2018-07-05T10:20:46.556Z,2.80
2018-07-05T10:23:14.621Z,2.80
2018-07-05T10:25:42.590Z,2.80
2018-07-05T10:28:10.578Z,2.60
2018-07-05T10:30:50.756Z,2.50
2018-07-05T10:33:37.232Z,2.43
2018-07-05T10:36:09.963Z,2.40
2018-07-05T10:38:37.773Z,2.73
2018-07-05T10:41:17.999Z,2.50
2018-07-05T10:44:04.443Z,2.57
2018-07-05T10:46:51.032Z,2.90
2018-07-05T10:49:37.479Z,3.00
2018-07-05T10:52:23.812Z,2.80
2018-07-05T10:55:10.489Z,3.05
2018-07-05T10:57:56.871Z,2.70
2018-07-05T11:00:43.468Z,2.45
2018-07-05T11:03:30.000Z,2.95
2018-07-05T11:06:16.387Z,2.65
2018-07-05T11:09:02.812Z,3.02
2018-07-05T11:11:49.471Z,2.85
2018-07-05T11:14:29.839Z,2.65
2018-07-05T11:17:16.389Z,2.90
2018-07-05T11:20:02.876Z,2.80
2018-07-05T11:22:49.507Z,2.80
2018-07-05T11:25:35.778Z,2.47
2018-07-05T11:28:22.287Z,2.30
2018-07-05T11:31:08.690Z,2.52
2018-07-05T11:33:55.200Z,2.67
2018-07-05T11:36:41.516Z,2.70
2018-07-05T11:39:28.887Z,2.30
2018-07-05T11:42:15.516Z,2.60
2018-07-05T11:44:55.780Z,3.27
2018-07-05T11:47:42.027Z,2.70
2018-07-05T11:50:28.586Z,2.70
2018-07-05T11:53:14.962Z,2.55
2018-07-05T11:56:01.388Z,2.55
2018-07-05T11:58:41.731Z,3.10
2018-07-05T12:01:28.167Z,3.90
2018-07-05T12:04:14.898Z,2.42
2018-07-05T12:06:55.424Z,2.72
2018-07-05T12:09:41.769Z,3.20
2018-07-05T12:12:28.447Z,2.50
2018-07-05T12:15:14.796Z,2.40
2018-07-05T12:18:01.469Z,3.20
2018-07-05T12:20:47.884Z,2.90
2018-07-05T12:23:28.466Z,2.90
2018-07-05T12:26:14.907Z,2.90
2018-07-05T12:29:01.413Z,2.55
2018-07-05T12:31:47.963Z,2.50
2018-07-05T12:34:34.457Z,2.40
2018-07-05T12:37:21.151Z,2.60
2018-07-05T12:40:01.504Z,2.30
2018-07-05T12:42:47.757Z,2.75
2018-07-05T12:45:34.380Z,2.50
2018-07-05T12:48:20.935Z,2.72
2018-07-05T12:51:07.404Z,2.65
2018-07-05T12:53:54.039Z,3.45
2018-07-05T12:56:41.107Z,3.10
2018-07-05T12:59:27.476Z,2.60
2018-07-05T13:02:14.187Z,2.60
2018-07-05T13:05:00.624Z,2.75
2018-07-05T13:07:46.971Z,2.55
2018-07-05T13:10:33.544Z,2.90
2018-07-05T13:13:20.032Z,2.80
2018-07-05T13:16:06.611Z,2.45
2018-07-05T13:18:53.163Z,2.72
2018-07-05T13:21:39.808Z,2.50
2018-07-05T13:24:26.524Z,3.08
2018-07-05T13:27:13.128Z,2.65
2018-07-05T13:29:59.564Z,2.90
2018-07-05T13:32:45.963Z,2.95
2018-07-05T13:35:32.300Z,2.98
2018-07-05T13:38:19.039Z,2.77
2018-07-05T13:41:05.620Z,2.53
2018-07-05T13:43:52.139Z,2.00
2018-07-05T13:46:38.628Z,2.40
2018-07-05T13:49:25.164Z,2.80
2018-07-05T13:52:05.682Z,2.70
2018-07-05T13:54:52.119Z,3.17
2018-07-05T13:57:38.931Z,3.23
2018-07-05T14:00:25.608Z,3.00
2018-07-05T14:03:12.199Z,3.30
2018-07-05T14:05:52.792Z,3.70
2018-07-05T14:08:33.163Z,4.30
2018-07-05T14:11:19.624Z,4.20
2018-07-05T14:14:06.208Z,4.50
2018-07-05T14:16:46.752Z,4.13
2018-07-05T14:19:27.227Z,4.40
2018-07-05T14:22:13.471Z,4.90
2018-07-05T14:25:00.145Z,4.23
2018-07-05T14:27:46.731Z,4.80
2018-07-05T14:30:33.435Z,4.10
2018-07-05T14:33:20.135Z,3.87
2018-07-05T14:36:00.614Z,4.23
2018-07-05T14:38:47.232Z,3.70
2018-07-05T14:41:33.723Z,3.63
2018-07-05T14:44:20.240Z,3.43
2018-07-05T14:47:06.816Z,3.57
2018-07-05T14:49:53.387Z,3.43
2018-07-05T14:52:39.970Z,3.50
2018-07-05T14:55:26.473Z,4.13
2018-07-05T14:58:12.964Z,3.60
2018-07-05T15:00:59.388Z,3.77
2018-07-05T15:03:46.180Z,3.63
2018-07-05T15:06:32.980Z,3.77
2018-07-05T15:09:13.528Z,3.53
2018-07-05T15:11:59.880Z,3.70
2018-07-05T15:14:46.411Z,3.10
2018-07-05T15:17:33.030Z,3.03
2018-07-05T15:20:19.693Z,3.10
2018-07-05T15:23:00.120Z,3.37
2018-07-05T15:25:46.649Z,3.27
2018-07-05T15:28:33.187Z,3.07
2018-07-05T15:31:13.539Z,3.10
2018-07-05T15:34:00.022Z,2.90
2018-07-05T15:36:46.603Z,3.60
2018-07-05T15:39:33.160Z,3.12
2018-07-05T15:42:19.656Z,3.35
2018-07-05T15:45:06.012Z,2.83
2018-07-05T15:47:52.404Z,2.80
2018-07-05T15:50:39.044Z,3.30
2018-07-05T15:53:25.768Z,3.00
2018-07-05T15:56:12.435Z,2.95
2018-07-05T15:58:52.859Z,2.80
2018-07-05T16:01:39.263Z,2.90
2018-07-05T16:04:25.824Z,2.77
2018-07-05T16:07:12.215Z,2.80
2018-07-05T16:09:58.949Z,2.75
2018-07-05T16:12:45.330Z,2.83
2018-07-05T16:15:31.789Z,2.67
2018-07-05T16:18:12.189Z,2.72
2018-07-05T16:20:58.695Z,2.90
2018-07-05T16:23:45.108Z,2.72
2018-07-05T16:26:31.618Z,3.02
2018-07-05T16:29:18.049Z,3.10
2018-07-05T16:32:04.495Z,2.75
2018-07-05T16:34:50.980Z,3.20
2018-07-05T16:37:37.528Z,3.20
2018-07-05T16:40:23.959Z,3.10
2018-07-05T16:43:04.388Z,3.20
2018-07-05T16:45:50.915Z,3.20
2018-07-05T16:48:37.297Z,4.25
2018-07-05T16:51:23.924Z,4.30
2018-07-05T16:54:10.643Z,3.70
2018-07-05T16:56:57.232Z,3.52
2018-07-05T16:59:43.872Z,3.60
2018-07-05T17:02:30.495Z,4.10
2018-07-05T17:05:16.900Z,3.67
2018-07-05T17:08:03.521Z,4.10
2018-07-05T17:10:49.995Z,3.90
2018-07-05T17:13:36.463Z,3.27
2018-07-05T17:16:23.016Z,3.47
2018-07-05T17:19:09.560Z,3.10
2018-07-05T17:21:56.310Z,3.30
2018-07-05T17:24:42.779Z,3.50
2018-07-05T17:27:29.287Z,3.13
2018-07-05T17:30:16.025Z,3.30
2018-07-05T17:33:02.452Z,2.63
2018-07-05T17:35:48.921Z,2.60
2018-07-05T17:38:35.480Z,2.80
2018-07-05T17:41:22.008Z,3.27
2018-07-05T17:44:08.419Z,3.13
2018-07-05T17:46:48.855Z,3.20
2018-07-05T17:49:29.118Z,3.30
2018-07-05T17:52:15.431Z,3.70
2018-07-05T17:55:02.477Z,4.57
2018-07-05T17:57:49.085Z,4.17
2018-07-05T18:00:35.671Z,4.47
2018-07-05T18:03:22.216Z,4.40
2018-07-05T18:06:03.516Z,4.50
2018-07-05T18:08:50.103Z,4.20
2018-07-05T18:11:36.689Z,4.40
2018-07-05T18:14:23.354Z,4.20
2018-07-05T18:17:10.037Z,4.93
2018-07-05T18:19:56.506Z,4.53
2018-07-05T18:22:43.048Z,4.57
2018-07-05T18:25:29.879Z,4.20
2018-07-05T18:28:16.391Z,4.10
2018-07-05T18:31:02.844Z,4.57
2018-07-05T18:33:49.530Z,4.43
2018-07-05T18:36:36.255Z,4.70
2018-07-05T18:39:22.800Z,4.33
2018-07-05T18:42:09.608Z,4.80
2018-07-05T18:44:56.075Z,4.17
2018-07-05T18:47:42.800Z,4.10
2018-07-05T18:50:29.377Z,4.47
2018-07-05T18:53:15.820Z,4.03
2018-07-05T18:56:02.528Z,4.30
2018-07-05T18:58:49.046Z,3.63
2018-07-05T19:01:35.491Z,4.10
2018-07-05T19:04:22.039Z,4.00
2018-07-05T19:07:08.772Z,3.53
2018-07-05T19:09:49.279Z,3.70
2018-07-05T19:12:35.662Z,3.87
2018-07-05T19:15:22.276Z,3.80
2018-07-05T19:18:08.925Z,3.80
2018-07-05T19:20:55.484Z,3.50
2018-07-05T19:23:42.099Z,3.40
2018-07-05T19:26:22.667Z,3.77
2018-07-05T19:29:09.184Z,3.57
2018-07-05T19:31:55.724Z,3.63
2018-07-05T19:34:42.292Z,3.60
2018-07-05T19:37:28.899Z,3.30
2018-07-05T19:40:15.360Z,3.50
2018-07-05T19:43:02.014Z,3.90
2018-07-05T19:45:48.544Z,3.87
2018-07-05T19:48:35.020Z,4.20
2018-07-05T19:51:21.628Z,3.90
2018-07-05T19:54:08.213Z,3.70
2018-07-05T19:56:48.715Z,4.00
2018-07-05T19:59:35.112Z,4.17
2018-07-05T20:02:21.748Z,3.97
2018-07-05T20:05:08.243Z,4.07
2018-07-05T20:07:54.983Z,4.20
2018-07-05T20:10:41.733Z,4.83
2018-07-05T20:13:28.144Z,4.97
2018-07-05T20:16:14.572Z,4.63
2018-07-05T20:18:55.004Z,4.70
2018-07-05T20:21:41.505Z,4.63
2018-07-05T20:24:27.901Z,4.60
2018-07-05T20:27:08.319Z,4.53
2018-07-05T20:29:54.683Z,4.43
2018-07-05T20:32:41.293Z,4.80
2018-07-05T20:35:27.994Z,3.90
2018-07-05T20:38:08.851Z,3.90
2018-07-05T20:40:55.236Z,3.93
2018-07-05T20:43:42.176Z,4.03
2018-07-05T20:46:28.791Z,3.77
2018-07-05T20:49:15.395Z,3.63
2018-07-05T20:52:01.956Z,3.83
2018-07-05T20:54:48.507Z,3.67
2018-07-05T20:57:35.036Z,3.70
2018-07-05T21:00:21.727Z,3.90
2018-07-05T21:03:08.340Z,5.00
2018-07-05T21:05:54.964Z,5.93
2018-07-05T21:08:35.382Z,6.70
2018-07-05T21:11:21.812Z,6.67
2018-07-05T21:14:08.183Z,6.10
2018-07-05T21:16:54.771Z,6.10
2018-07-05T21:19:41.418Z,5.23
2018-07-05T21:22:27.867Z,4.90
2018-07-05T21:25:14.324Z,5.90
2018-07-05T21:28:00.631Z,5.53
2018-07-05T21:30:41.088Z,5.23
2018-07-05T21:33:27.487Z,5.50
2018-07-05T21:36:14.292Z,5.40
2018-07-05T21:39:01.009Z,5.70
2018-07-05T21:41:47.561Z,5.23
2018-07-05T21:44:34.071Z,5.40
2018-07-05T21:47:20.676Z,5.33
2018-07-05T21:50:07.323Z,5.47
2018-07-05T21:52:53.723Z,5.80
2018-07-05T21:55:34.207Z,5.80
2018-07-05T21:58:20.713Z,6.17
2018-07-05T22:01:07.416Z,5.43
2018-07-05T22:03:54.016Z,5.57
2018-07-05T22:06:40.772Z,5.33
2018-07-05T22:09:27.224Z,5.73
2018-07-05T22:12:13.760Z,5.30
2018-07-05T22:15:00.284Z,6.00
2018-07-05T22:17:52.220Z,5.50
2018-07-05T22:20:38.308Z,6.33
2018-07-05T22:23:30.247Z,6.07
2018-07-05T22:26:22.252Z,5.93
2018-07-05T22:29:14.218Z,6.07
2018-07-05T22:32:00.744Z,6.00
2018-07-05T22:34:47.351Z,6.20
2018-07-05T22:37:33.759Z,5.80
2018-07-05T22:40:20.196Z,5.97
2018-07-05T22:43:06.936Z,5.67
2018-07-05T22:45:53.424Z,5.50
2018-07-05T22:48:39.991Z,5.70
2018-07-05T22:51:26.588Z,5.40
2018-07-05T22:54:13.147Z,4.97
2018-07-05T22:56:59.959Z,5.07
2018-07-05T22:59:46.527Z,4.67
2018-07-05T23:02:27.000Z,4.30
2018-07-05T23:05:13.464Z,4.30
2018-07-05T23:08:00.256Z,4.03
2018-07-05T23:10:46.827Z,3.33
2018-07-05T23:13:33.256Z,3.30
2018-07-05T23:16:19.856Z,3.23
2018-07-05T23:19:06.540Z,3.13
2018-07-05T23:21:53.205Z,2.87
2018-07-05T23:24:39.703Z,2.60
2018-07-05T23:27:20.311Z,2.20
2018-07-05T23:30:06.665Z,2.77
2018-07-05T23:32:53.253Z,2.57
2018-07-05T23:35:39.764Z,2.57
2018-07-05T23:38:26.443Z,2.80
2018-07-05T23:41:12.824Z,2.60
2018-07-05T23:43:59.279Z,2.90
2018-07-05T23:46:45.747Z,2.90
2018-07-05T23:49:32.440Z,3.10
2018-07-05T23:52:19.063Z,2.93
2018-07-05T23:55:05.579Z,2.87
2018-07-05T23:57:51.890Z,3.10
